createdAt,value
2022-09-15T00:01:34.750Z,66.50
2022-09-15T00:04:08.839Z,60.40
2022-09-15T00:06:36.261Z,53.65
2022-09-15T00:09:04.774Z,59.88
2022-09-15T00:11:34.975Z,64.28
2022-09-15T00:14:04.549Z,60.30
2022-09-15T00:16:32.631Z,64.72
2022-09-15T00:19:00.815Z,65.10
2022-09-15T00:21:31.686Z,63.75
2022-09-15T00:23:59.974Z,70.45
2022-09-15T00:26:29.757Z,69.80
2022-09-15T00:28:59.109Z,60.67
2022-09-15T00:31:27.838Z,73.15
2022-09-15T00:34:00.246Z,76.03
2022-09-15T00:36:27.383Z,74.22
2022-09-15T00:38:57.502Z,92.28
2022-09-15T00:44:00.958Z,66.57
2022-09-15T00:46:38.602Z,72.75
2022-09-15T00:49:22.631Z,70.72
2022-09-15T00:52:22.550Z,73.00
2022-09-15T00:54:55.556Z,68.45
2022-09-15T00:57:47.447Z,77.55
2022-09-15T01:00:17.287Z,99.20
2022-09-15T01:02:46.003Z,83.32
2022-09-15T01:05:18.226Z,88.07
2022-09-15T01:07:56.801Z,83.90
2022-09-15T01:10:30.363Z,75.03
2022-09-15T01:13:02.036Z,74.68
2022-09-15T01:15:52.621Z,75.18
2022-09-15T01:18:29.143Z,90.82
2022-09-15T01:21:02.234Z,24.33
2022-09-15T01:24:03.606Z,20.38
2022-09-15T01:26:54.926Z,58.53
2022-09-15T01:29:41.216Z,42.53
2022-09-15T01:32:46.050Z,30.60
2022-09-15T01:35:22.798Z,41.67
2022-09-15T01:37:57.879Z,53.20
2022-09-15T01:40:29.833Z,47.95
2022-09-15T01:42:59.697Z,45.20
2022-09-15T01:45:31.242Z,20.63
2022-09-15T01:48:01.569Z,19.05
2022-09-15T01:50:36.822Z,15.07
2022-09-15T01:53:11.730Z,13.15
2022-09-15T01:55:51.364Z,9.02
2022-09-15T01:58:19.244Z,11.40
2022-09-15T02:00:54.153Z,9.63
2022-09-15T02:03:33.845Z,9.85
2022-09-15T02:06:17.891Z,16.27
2022-09-15T02:08:57.607Z,25.77
2022-09-15T02:11:29.324Z,37.05
2022-09-15T02:14:26.241Z,67.60
2022-09-15T02:16:54.566Z,53.47
2022-09-15T02:19:41.897Z,53.75
2022-09-15T02:22:23.756Z,48.42
2022-09-15T02:25:00.132Z,47.88
2022-09-15T02:27:31.987Z,51.50
2022-09-15T02:30:06.110Z,43.30
2022-09-15T02:32:36.279Z,26.40
2022-09-15T02:35:07.006Z,26.58
2022-09-15T02:37:36.300Z,20.35
2022-09-15T02:40:04.598Z,29.65
2022-09-15T02:42:33.593Z,16.80
2022-09-15T02:45:01.636Z,22.30
2022-09-15T02:47:30.496Z,26.05
2022-09-15T02:49:57.787Z,15.52
2022-09-15T02:52:24.990Z,20.17
2022-09-15T02:54:52.346Z,26.95
2022-09-15T02:57:19.956Z,23.58
2022-09-15T03:00:05.904Z,32.90
2022-09-15T03:02:32.962Z,42.50
2022-09-15T03:05:00.014Z,62.83
2022-09-15T03:07:29.059Z,50.65
2022-09-15T03:09:56.721Z,37.37
2022-09-15T03:12:24.951Z,27.98
2022-09-15T03:14:52.851Z,15.43
2022-09-15T03:17:20.106Z,21.13
2022-09-15T03:19:47.089Z,13.82
2022-09-15T03:22:14.068Z,18.08
2022-09-15T03:24:42.966Z,12.52
2022-09-15T03:27:10.401Z,14.20
2022-09-15T03:29:37.638Z,16.23
2022-09-15T03:32:04.867Z,14.43
2022-09-15T03:34:32.136Z,11.15
2022-09-15T03:36:59.074Z,17.02
2022-09-15T03:39:26.263Z,15.80
2022-09-15T03:41:53.787Z,12.32
2022-09-15T03:44:21.274Z,17.20
2022-09-15T03:46:48.628Z,17.20
2022-09-15T03:49:15.775Z,17.40
2022-09-15T03:51:43.294Z,28.05
2022-09-15T03:54:11.458Z,28.02
2022-09-15T03:56:38.946Z,50.60
2022-09-15T03:59:06.071Z,40.60
2022-09-15T04:01:33.536Z,41.83
2022-09-15T04:04:00.855Z,40.15
2022-09-15T04:06:28.360Z,47.75
2022-09-15T04:08:55.702Z,43.53
2022-09-15T04:11:23.163Z,35.80
2022-09-15T04:13:51.284Z,34.55
2022-09-15T04:16:20.724Z,30.13
2022-09-15T04:18:49.719Z,41.10
2022-09-15T04:21:20.615Z,27.58
2022-09-15T04:23:48.709Z,38.20
2022-09-15T04:26:34.619Z,54.80
2022-09-15T04:29:04.686Z,23.65
2022-09-15T04:31:33.155Z,18.08
2022-09-15T04:34:00.367Z,17.90
2022-09-15T04:36:29.651Z,14.48
2022-09-15T04:38:58.303Z,19.33
2022-09-15T04:41:26.618Z,20.92
2022-09-15T04:43:53.985Z,21.10
2022-09-15T04:46:21.329Z,37.17
2022-09-15T04:48:48.984Z,40.05
2022-09-15T04:51:21.036Z,41.75
2022-09-15T04:53:48.894Z,20.33
2022-09-15T04:56:18.542Z,35.55
2022-09-15T04:58:53.846Z,26.10
2022-09-15T05:01:30.585Z,28.10
2022-09-15T05:03:58.366Z,15.13
2022-09-15T05:06:28.021Z,16.27
2022-09-15T05:08:56.928Z,20.27
2022-09-15T05:11:25.102Z,21.42
2022-09-15T05:13:53.049Z,25.00
2022-09-15T05:16:25.901Z,17.90
2022-09-15T05:18:56.571Z,22.25
2022-09-15T05:21:25.247Z,11.40
2022-09-15T05:23:53.164Z,13.65
2022-09-15T05:26:26.849Z,17.65
2022-09-15T05:28:54.514Z,16.15
2022-09-15T05:31:28.859Z,14.63
2022-09-15T05:33:56.168Z,13.43
2022-09-15T05:36:25.424Z,22.38
2022-09-15T05:38:54.310Z,13.90
2022-09-15T05:41:21.980Z,17.67
2022-09-15T05:43:50.953Z,17.45
2022-09-15T05:46:19.540Z,18.38
2022-09-15T05:48:47.915Z,17.73
2022-09-15T05:51:15.318Z,16.63
2022-09-15T05:53:42.871Z,11.95
2022-09-15T05:56:15.114Z,12.20
2022-09-15T05:58:44.293Z,16.33
2022-09-15T06:01:14.719Z,22.17
2022-09-15T06:06:08.717Z,13.63
2022-09-15T06:08:40.538Z,13.13
2022-09-15T06:11:13.592Z,11.80
2022-09-15T06:13:40.615Z,15.57
2022-09-15T06:16:13.036Z,17.35
2022-09-15T06:18:41.735Z,11.88
2022-09-15T06:21:15.193Z,13.00
2022-09-15T06:23:48.490Z,10.77
2022-09-15T06:26:19.071Z,17.77
2022-09-15T06:29:18.054Z,20.83
2022-09-15T06:31:45.964Z,18.05
2022-09-15T06:34:13.068Z,14.80
2022-09-15T06:36:40.458Z,12.07
2022-09-15T06:39:08.840Z,15.45
2022-09-15T06:42:00.691Z,11.63
2022-09-15T06:44:26.614Z,12.63
2022-09-15T06:46:53.785Z,7.55
2022-09-15T06:49:21.901Z,11.00
2022-09-15T06:51:49.071Z,10.85
2022-09-15T06:54:17.088Z,12.05
2022-09-15T06:56:44.895Z,9.63
2022-09-15T06:59:13.026Z,10.18
2022-09-15T07:01:41.048Z,11.30
2022-09-15T07:04:10.369Z,13.82
2022-09-15T07:06:39.404Z,18.00
2022-09-15T07:09:07.254Z,9.25
2022-09-15T07:11:34.652Z,9.20
2022-09-15T07:14:02.269Z,10.27
2022-09-15T07:16:29.841Z,8.27
2022-09-15T07:18:58.453Z,6.22
2022-09-15T07:21:25.802Z,11.13
2022-09-15T07:23:53.510Z,10.10
2022-09-15T07:26:23.657Z,7.45
2022-09-15T07:29:02.427Z,14.27
2022-09-15T07:31:31.914Z,8.88
2022-09-15T07:34:01.260Z,9.73
2022-09-15T07:36:29.631Z,4.65
2022-09-15T07:38:57.094Z,3.95
2022-09-15T07:41:26.826Z,4.35
2022-09-15T07:43:56.033Z,6.45
2022-09-15T07:46:25.194Z,4.78
2022-09-15T07:48:54.828Z,5.57
2022-09-15T07:51:22.068Z,8.65
2022-09-15T07:53:50.892Z,9.98
2022-09-15T07:56:18.890Z,11.98
2022-09-15T07:58:47.404Z,8.80
2022-09-15T08:01:16.295Z,6.88
2022-09-15T08:03:49.062Z,6.70
2022-09-15T08:06:25.317Z,5.90
2022-09-15T08:08:56.519Z,6.28
2022-09-15T08:11:27.040Z,4.85
2022-09-15T08:13:54.472Z,13.20
2022-09-15T08:16:24.374Z,5.90
2022-09-15T08:18:55.502Z,4.97
2022-09-15T08:21:23.894Z,5.38
2022-09-15T08:23:53.785Z,4.53
2022-09-15T08:26:20.852Z,5.77
2022-09-15T08:28:49.795Z,5.22
2022-09-15T08:31:18.361Z,7.05
2022-09-15T08:33:50.358Z,4.70
2022-09-15T08:36:18.782Z,5.65
2022-09-15T08:38:47.177Z,7.38
2022-09-15T08:41:26.345Z,3.97
2022-09-15T08:44:01.310Z,3.75
2022-09-15T08:46:39.357Z,6.90
2022-09-15T08:49:47.393Z,5.18
2022-09-15T08:52:21.530Z,4.50
2022-09-15T08:54:51.045Z,6.82
2022-09-15T08:57:22.811Z,5.57
2022-09-15T08:59:50.374Z,7.55
2022-09-15T09:02:41.028Z,8.55
2022-09-15T09:05:34.826Z,8.70
2022-09-15T09:08:17.163Z,5.57
2022-09-15T09:10:54.207Z,5.68
2022-09-15T09:13:44.101Z,4.82
2022-09-15T09:16:20.722Z,9.07
2022-09-15T09:18:58.220Z,7.15
2022-09-15T09:21:29.691Z,7.70
2022-09-15T09:24:12.099Z,6.90
2022-09-15T09:26:39.987Z,7.72
2022-09-15T09:29:12.198Z,12.27
2022-09-15T09:31:41.287Z,6.28
2022-09-15T09:34:32.289Z,3.28
2022-09-15T09:37:02.036Z,12.80
2022-09-15T09:39:29.023Z,11.23
2022-09-15T09:41:56.200Z,8.13
2022-09-15T09:44:32.108Z,8.65
2022-09-15T09:47:00.718Z,7.05
2022-09-15T09:49:50.219Z,7.68
2022-09-15T09:52:46.818Z,9.13
2022-09-15T09:55:27.304Z,6.43
2022-09-15T09:58:10.984Z,10.05
2022-09-15T10:00:40.401Z,9.63
2022-09-15T10:03:18.569Z,9.70
2022-09-15T10:06:00.341Z,10.02
2022-09-15T10:08:27.397Z,7.53
2022-09-15T10:10:57.179Z,9.93
2022-09-15T10:13:24.219Z,10.73
2022-09-15T10:15:58.577Z,8.48
2022-09-15T10:18:32.043Z,6.88
2022-09-15T10:21:01.808Z,6.93
2022-09-15T10:23:33.565Z,7.30
2022-09-15T10:26:32.233Z,6.03
2022-09-15T10:29:15.644Z,8.07
2022-09-15T10:31:44.829Z,9.38
2022-09-15T10:34:31.077Z,8.95
2022-09-15T10:37:27.410Z,5.93
2022-09-15T10:39:57.020Z,8.32
2022-09-15T10:42:37.165Z,6.68
2022-09-15T10:47:48.838Z,9.80
2022-09-15T10:50:43.657Z,9.85
2022-09-15T10:53:17.133Z,6.43
2022-09-15T10:56:27.089Z,6.88
2022-09-15T10:59:03.559Z,5.15
2022-09-15T11:01:30.633Z,11.63
2022-09-15T11:04:20.426Z,11.63
2022-09-15T11:07:02.762Z,8.10
2022-09-15T11:09:50.422Z,9.27
2022-09-15T11:12:32.258Z,10.02
2022-09-15T11:15:25.295Z,7.05
2022-09-15T11:17:58.398Z,12.27
2022-09-15T11:20:28.369Z,7.35
2022-09-15T11:23:11.318Z,9.30
2022-09-15T11:25:47.074Z,9.02
2022-09-15T11:28:28.244Z,12.55
2022-09-15T11:31:04.393Z,11.35
2022-09-15T11:33:38.240Z,10.65
2022-09-15T11:36:30.420Z,9.45
2022-09-15T11:39:16.581Z,11.43
2022-09-15T11:42:09.770Z,11.38
2022-09-15T11:44:40.269Z,12.70
2022-09-15T11:47:16.844Z,15.32
2022-09-15T11:50:08.087Z,15.32
2022-09-15T11:53:01.620Z,11.48
2022-09-15T11:55:40.819Z,14.98
2022-09-15T11:58:24.378Z,14.93
2022-09-15T12:01:17.787Z,12.43
2022-09-15T12:03:45.137Z,12.25
2022-09-15T12:06:31.113Z,9.20
2022-09-15T12:09:06.545Z,12.73
2022-09-15T12:11:41.439Z,9.50
2022-09-15T12:14:31.097Z,8.07
2022-09-15T12:16:59.310Z,10.73
2022-09-15T12:19:33.561Z,12.23
2022-09-15T12:22:16.544Z,10.57
2022-09-15T12:25:03.979Z,9.50
2022-09-15T12:27:31.411Z,7.18
2022-09-15T12:30:01.628Z,9.18
2022-09-15T12:32:33.411Z,9.73
2022-09-15T12:35:13.713Z,5.30
2022-09-15T12:37:46.494Z,7.45
2022-09-15T12:40:42.140Z,5.15
2022-09-15T12:43:16.047Z,6.45
2022-09-15T12:45:54.676Z,7.07
2022-09-15T12:48:34.282Z,7.72
2022-09-15T12:51:05.183Z,3.00
2022-09-15T12:53:40.887Z,10.20
2022-09-15T12:56:21.738Z,6.40
2022-09-15T12:58:50.202Z,10.18
2022-09-15T13:01:23.305Z,4.95
2022-09-15T13:03:50.459Z,10.73
2022-09-15T13:06:26.555Z,4.65
2022-09-15T13:09:03.654Z,3.75
2022-09-15T13:11:34.760Z,3.25
2022-09-15T13:14:06.827Z,4.25
2022-09-15T13:16:52.847Z,5.85
2022-09-15T13:19:41.359Z,4.00
2022-09-15T13:22:11.410Z,10.45
2022-09-15T13:24:59.024Z,7.65
2022-09-15T13:27:39.927Z,11.23
2022-09-15T13:30:22.349Z,10.98
2022-09-15T13:32:55.461Z,5.00
2022-09-15T13:35:37.836Z,8.55
2022-09-15T13:38:20.017Z,6.30
2022-09-15T13:41:41.955Z,4.43
2022-09-15T13:44:27.821Z,6.95
2022-09-15T13:46:57.624Z,8.30
2022-09-15T13:49:24.652Z,7.97
2022-09-15T13:52:03.462Z,5.95
2022-09-15T13:54:30.905Z,6.32
2022-09-15T13:57:02.035Z,8.85
2022-09-15T13:59:32.794Z,7.15
2022-09-15T14:02:01.056Z,8.10
2022-09-15T14:04:32.736Z,8.63
2022-09-15T14:07:01.895Z,7.38
2022-09-15T14:09:40.166Z,10.10
2022-09-15T14:12:15.160Z,7.63
2022-09-15T14:14:54.198Z,8.98
2022-09-15T14:17:32.207Z,7.90
2022-09-15T14:20:01.534Z,4.95
2022-09-15T14:22:33.186Z,5.32
2022-09-15T14:25:08.269Z,7.35
2022-09-15T14:27:43.212Z,6.35
2022-09-15T14:30:20.035Z,6.82
2022-09-15T14:32:52.688Z,5.72
2022-09-15T14:35:26.990Z,3.05
2022-09-15T14:37:57.827Z,5.20
2022-09-15T14:40:32.479Z,6.57
2022-09-15T14:42:59.623Z,5.53
2022-09-15T14:48:30.172Z,5.32
2022-09-15T14:51:13.527Z,5.40
2022-09-15T14:53:42.581Z,5.57
2022-09-15T14:56:16.992Z,7.95
2022-09-15T14:58:50.949Z,9.73
2022-09-15T15:01:46.630Z,7.55
2022-09-15T15:04:28.466Z,7.13
2022-09-15T15:07:02.127Z,4.63
2022-09-15T15:09:32.096Z,6.03
2022-09-15T15:12:05.152Z,7.78
2022-09-15T15:14:33.633Z,6.18
2022-09-15T15:17:06.135Z,4.97
2022-09-15T15:19:41.076Z,5.85
2022-09-15T15:22:21.126Z,7.05
2022-09-15T15:24:51.421Z,4.60
2022-09-15T15:27:34.016Z,4.68
2022-09-15T15:30:23.247Z,7.18
2022-09-15T15:32:51.096Z,6.00
2022-09-15T15:35:21.308Z,4.50
2022-09-15T15:37:49.973Z,5.25
2022-09-15T15:40:20.431Z,5.07
2022-09-15T15:43:27.261Z,5.93
2022-09-15T15:45:58.882Z,6.05
2022-09-15T15:48:38.110Z,5.53
2022-09-15T15:51:07.562Z,5.95
2022-09-15T15:53:35.036Z,4.18
2022-09-15T15:56:02.341Z,4.70
2022-09-15T15:58:29.759Z,6.35
2022-09-15T16:00:57.405Z,7.05
2022-09-15T16:03:25.645Z,4.70
2022-09-15T16:05:57.360Z,5.13
2022-09-15T16:08:33.821Z,8.80
2022-09-15T16:11:03.072Z,10.10
2022-09-15T16:13:30.776Z,6.97
2022-09-15T16:16:00.952Z,6.95
2022-09-15T16:20:55.988Z,5.65
2022-09-15T16:23:23.684Z,6.05
2022-09-15T16:26:05.796Z,6.25
2022-09-15T16:28:33.615Z,6.90
2022-09-15T16:31:00.855Z,12.70
2022-09-15T16:33:28.494Z,10.63
2022-09-15T16:36:07.402Z,7.18
2022-09-15T16:38:36.053Z,5.45
2022-09-15T16:41:04.626Z,8.52
2022-09-15T16:43:31.812Z,8.45
2022-09-15T16:45:58.832Z,6.18
2022-09-15T16:48:25.813Z,7.78
2022-09-15T16:51:19.498Z,9.32
2022-09-15T16:53:41.373Z,9.38
2022-09-15T16:56:11.960Z,10.02
2022-09-15T16:58:39.654Z,13.60
2022-09-15T17:01:08.171Z,24.00
2022-09-15T17:03:36.252Z,26.38
2022-09-15T17:06:03.566Z,16.40
2022-09-15T17:08:34.069Z,14.40
2022-09-15T17:11:04.058Z,13.55
2022-09-15T17:13:34.348Z,21.50
2022-09-15T17:16:02.549Z,15.93
2022-09-15T17:18:30.154Z,17.67
2022-09-15T17:20:57.891Z,12.23
2022-09-15T17:23:27.908Z,17.42
2022-09-15T17:26:01.222Z,12.10
2022-09-15T17:28:31.242Z,16.95
2022-09-15T17:31:00.651Z,12.88
2022-09-15T17:33:29.672Z,15.45
2022-09-15T17:35:58.554Z,10.50
2022-09-15T17:38:26.783Z,11.65
2022-09-15T17:40:55.546Z,13.65
2022-09-15T17:43:26.694Z,9.07
2022-09-15T17:45:54.585Z,9.38
2022-09-15T17:48:22.819Z,14.15
2022-09-15T17:50:50.425Z,12.35
2022-09-15T17:53:23.149Z,18.48
2022-09-15T17:55:51.279Z,13.68
2022-09-15T17:58:19.040Z,14.75
2022-09-15T18:00:48.845Z,19.05
2022-09-15T18:03:28.157Z,9.77
2022-09-15T18:05:58.351Z,7.43
2022-09-15T18:08:26.793Z,7.97
2022-09-15T18:10:54.014Z,11.60
2022-09-15T18:13:29.839Z,7.82
2022-09-15T18:16:05.186Z,10.00
2022-09-15T18:18:32.630Z,15.00
2022-09-15T18:21:00.048Z,7.88
2022-09-15T18:23:29.829Z,14.60
2022-09-15T18:26:05.292Z,10.40
2022-09-15T18:28:32.852Z,13.63
2022-09-15T18:31:03.030Z,13.73
2022-09-15T18:33:30.297Z,11.13
2022-09-15T18:36:02.794Z,10.18
2022-09-15T18:38:29.934Z,9.07
2022-09-15T18:40:57.734Z,10.63
2022-09-15T18:43:27.435Z,7.05
2022-09-15T18:45:59.485Z,8.13
2022-09-15T18:48:26.988Z,9.63
2022-09-15T18:50:55.274Z,7.47
2022-09-15T18:53:23.268Z,9.30
2022-09-15T18:55:50.715Z,8.77
2022-09-15T18:58:19.552Z,6.50
2022-09-15T19:00:47.464Z,7.90
2022-09-15T19:03:15.167Z,7.07
2022-09-15T19:05:42.666Z,9.15
2022-09-15T19:08:11.629Z,8.55
2022-09-15T19:10:41.608Z,10.35
2022-09-15T19:13:11.453Z,10.43
2022-09-15T19:15:44.354Z,8.30
2022-09-15T19:18:11.964Z,6.43
2022-09-15T19:20:40.356Z,6.72
2022-09-15T19:23:08.030Z,9.65
2022-09-15T19:25:35.486Z,7.13
2022-09-15T19:28:03.862Z,5.93
2022-09-15T19:30:31.395Z,6.72
2022-09-15T19:32:59.679Z,8.40
2022-09-15T19:35:26.750Z,8.38
2022-09-15T19:37:53.772Z,9.15
2022-09-15T19:40:22.937Z,7.85
2022-09-15T19:42:50.236Z,9.73
2022-09-15T19:45:18.552Z,10.18
2022-09-15T19:47:45.619Z,8.05
2022-09-15T19:50:12.697Z,9.40
2022-09-15T19:52:39.994Z,7.95
2022-09-15T19:55:09.908Z,9.10
2022-09-15T19:57:40.616Z,11.00
2022-09-15T20:00:10.863Z,11.00
2022-09-15T20:02:38.451Z,13.15
2022-09-15T20:05:06.186Z,10.82
2022-09-15T20:07:33.459Z,12.43
2022-09-15T20:10:00.512Z,11.82
2022-09-15T20:12:27.470Z,11.57
2022-09-15T20:14:54.622Z,14.88
2022-09-15T20:17:21.648Z,11.05
2022-09-15T20:19:49.279Z,10.93
2022-09-15T20:22:16.730Z,11.60
2022-09-15T20:24:43.981Z,11.73
2022-09-15T20:27:11.047Z,13.10
2022-09-15T20:29:38.993Z,10.80
2022-09-15T20:32:06.569Z,11.82
2022-09-15T20:34:34.153Z,11.52
2022-09-15T20:37:01.754Z,9.48
2022-09-15T20:39:29.123Z,11.07
2022-09-15T20:41:57.837Z,13.90
2022-09-15T20:44:24.873Z,10.38
2022-09-15T20:46:52.017Z,11.00
2022-09-15T20:49:19.959Z,9.18
2022-09-15T20:51:48.342Z,10.45
2022-09-15T20:54:15.668Z,10.38
2022-09-15T20:56:42.955Z,10.13
2022-09-15T20:59:13.905Z,12.05
2022-09-15T21:01:41.618Z,11.80
2022-09-15T21:04:10.094Z,9.23
2022-09-15T21:06:37.834Z,11.98
2022-09-15T21:09:06.379Z,8.20
2022-09-15T21:11:33.939Z,9.63
2022-09-15T21:14:01.660Z,9.70
2022-09-15T21:16:29.568Z,10.50
2022-09-15T21:18:58.643Z,9.23
2022-09-15T21:21:30.053Z,8.70
2022-09-15T21:24:01.597Z,10.70
2022-09-15T21:26:58.453Z,10.25
2022-09-15T21:29:26.498Z,8.40
2022-09-15T21:31:56.016Z,8.77
2022-09-15T21:34:24.133Z,10.40
2022-09-15T21:36:51.876Z,8.10
2022-09-15T21:39:19.117Z,13.98
2022-09-15T21:41:46.382Z,8.98
2022-09-15T21:44:13.388Z,10.30
2022-09-15T21:46:40.298Z,11.57
2022-09-15T21:49:08.313Z,12.27
2022-09-15T21:51:36.369Z,10.20
2022-09-15T21:54:03.552Z,10.02
2022-09-15T21:56:30.536Z,11.65
2022-09-15T21:58:57.500Z,11.75
2022-09-15T22:01:27.665Z,11.27
2022-09-15T22:04:12.630Z,12.07
2022-09-15T22:06:40.903Z,10.50
2022-09-15T22:09:11.380Z,11.40
2022-09-15T22:14:09.556Z,10.20
2022-09-15T22:16:38.499Z,11.32
2022-09-15T22:19:07.349Z,12.30
2022-09-15T22:21:37.223Z,10.93
2022-09-15T22:24:07.123Z,11.93
2022-09-15T22:26:37.660Z,14.07
2022-09-15T22:29:06.320Z,13.63
2022-09-15T22:31:35.262Z,14.38
2022-09-15T22:34:03.737Z,11.23
2022-09-15T22:36:31.616Z,13.95
2022-09-15T22:39:04.551Z,94.47
2022-09-15T22:41:35.055Z,13.68
2022-09-15T22:44:02.761Z,16.20
2022-09-15T22:46:30.059Z,15.43
2022-09-15T22:48:57.085Z,17.08
2022-09-15T22:51:24.808Z,14.25
2022-09-15T22:53:57.178Z,12.95
2022-09-15T22:56:26.843Z,16.65
2022-09-15T22:58:56.086Z,13.63
2022-09-15T23:01:26.607Z,15.45
2022-09-15T23:03:59.014Z,15.40
2022-09-15T23:06:28.765Z,16.77
2022-09-15T23:08:58.330Z,14.93
2022-09-15T23:11:28.228Z,16.95
2022-09-15T23:13:56.542Z,17.77
2022-09-15T23:16:25.081Z,16.80
2022-09-15T23:18:53.055Z,17.55
2022-09-15T23:21:20.665Z,15.05
2022-09-15T23:23:49.028Z,14.43
2022-09-15T23:26:18.527Z,16.85
2022-09-15T23:28:45.628Z,15.97
2022-09-15T23:31:14.507Z,17.52
2022-09-15T23:33:42.848Z,18.80
2022-09-15T23:36:13.287Z,17.58
2022-09-15T23:38:42.522Z,17.13
2022-09-15T23:41:11.800Z,17.20
2022-09-15T23:43:39.705Z,19.63
2022-09-15T23:46:07.004Z,16.80
2022-09-15T23:48:34.023Z,17.67
2022-09-15T23:51:01.440Z,15.63
2022-09-15T23:53:29.396Z,16.17
2022-09-15T23:55:56.977Z,19.30
2022-09-15T23:58:25.096Z,17.35
